sensor_id;sensor_type;location;lat;lon;timestamp;temperature;humidity
18281;DHT22;9266;51.132;17.062;2023-12-22T00:01:31;5.90;87.20
18281;DHT22;9266;51.132;17.062;2023-12-22T00:04:01;5.80;1.00
18281;DHT22;9266;51.132;17.062;2023-12-22T00:06:27;5.90;1.00
18281;DHT22;9266;51.132;17.062;2023-12-22T00:08:54;5.90;1.00
18281;DHT22;9266;51.132;17.062;2023-12-22T00:11:21;5.80;1.00
18281;DHT22;9266;51.132;17.062;2023-12-22T00:13:48;5.80;1.00
18281;DHT22;9266;51.132;17.062;2023-12-22T00:16:15;5.80;1.00
18281;DHT22;9266;51.132;17.062;2023-12-22T00:18:42;5.70;1.00
18281;DHT22;9266;51.132;17.062;2023-12-22T00:21:11;5.60;1.00
18281;DHT22;9266;51.132;17.062;2023-12-22T00:23:38;5.50;1.00
18281;DHT22;9266;51.132;17.062;2023-12-22T00:26:05;5.50;1.00
18281;DHT22;9266;51.132;17.062;2023-12-22T00:28:32;5.40;1.00
18281;DHT22;9266;51.132;17.062;2023-12-22T00:30:59;5.50;1.00
18281;DHT22;9266;51.132;17.062;2023-12-22T00:33:26;5.40;1.00
18281;DHT22;9266;51.132;17.062;2023-12-22T00:35:53;5.50;99.90
18281;DHT22;9266;51.132;17.062;2023-12-22T00:38:21;5.50;99.90
18281;DHT22;9266;51.132;17.062;2023-12-22T00:40:48;5.60;91.50
18281;DHT22;9266;51.132;17.062;2023-12-22T00:43:15;5.60;36.50
18281;DHT22;9266;51.132;17.062;2023-12-22T00:45:42;5.60;41.60
18281;DHT22;9266;51.132;17.062;2023-12-22T00:48:08;5.50;55.00
18281;DHT22;9266;51.132;17.062;2023-12-22T00:50:35;5.40;99.90
18281;DHT22;9266;51.132;17.062;2023-12-22T00:53:03;5.50;99.90
18281;DHT22;9266;51.132;17.062;2023-12-22T00:55:31;5.50;99.90
18281;DHT22;9266;51.132;17.062;2023-12-22T00:57:58;5.50;99.90
18281;DHT22;9266;51.132;17.062;2023-12-22T01:00:25;5.50;99.90
18281;DHT22;9266;51.132;17.062;2023-12-22T01:02:51;5.50;99.90
18281;DHT22;9266;51.132;17.062;2023-12-22T01:05:18;5.50;99.90
18281;DHT22;9266;51.132;17.062;2023-12-22T01:07:45;5.40;99.90
18281;DHT22;9266;51.132;17.062;2023-12-22T01:10:12;5.50;1.00
18281;DHT22;9266;51.132;17.062;2023-12-22T01:12:41;5.30;1.00
18281;DHT22;9266;51.132;17.062;2023-12-22T01:15:08;4.90;1.00
18281;DHT22;9266;51.132;17.062;2023-12-22T01:17:35;5.30;1.00
18281;DHT22;9266;51.132;17.062;2023-12-22T01:20:02;5.20;1.00
18281;DHT22;9266;51.132;17.062;2023-12-22T01:22:29;5.10;1.00
18281;DHT22;9266;51.132;17.062;2023-12-22T01:24:57;5.10;1.00
18281;DHT22;9266;51.132;17.062;2023-12-22T01:27:24;5.20;1.00
18281;DHT22;9266;51.132;17.062;2023-12-22T01:29:52;5.20;1.00
18281;DHT22;9266;51.132;17.062;2023-12-22T01:32:19;5.20;1.00
18281;DHT22;9266;51.132;17.062;2023-12-22T01:34:46;5.10;99.90
18281;DHT22;9266;51.132;17.062;2023-12-22T01:37:13;5.10;99.90
18281;DHT22;9266;51.132;17.062;2023-12-22T01:39:40;5.00;99.90
18281;DHT22;9266;51.132;17.062;2023-12-22T01:42:07;5.10;99.90
18281;DHT22;9266;51.132;17.062;2023-12-22T01:44:34;4.90;99.90
18281;DHT22;9266;51.132;17.062;2023-12-22T01:47:03;4.90;99.90
18281;DHT22;9266;51.132;17.062;2023-12-22T01:49:30;4.90;99.90
18281;DHT22;9266;51.132;17.062;2023-12-22T01:51:57;5.00;93.50
18281;DHT22;9266;51.132;17.062;2023-12-22T01:54:25;5.00;1.00
18281;DHT22;9266;51.132;17.062;2023-12-22T01:56:52;5.00;1.00
18281;DHT22;9266;51.132;17.062;2023-12-22T01:59:19;5.10;1.00
18281;DHT22;9266;51.132;17.062;2023-12-22T02:01:46;5.00;1.00
18281;DHT22;9266;51.132;17.062;2023-12-22T02:04:15;5.00;1.00
18281;DHT22;9266;51.132;17.062;2023-12-22T02:06:42;4.90;1.00
18281;DHT22;9266;51.132;17.062;2023-12-22T02:09:10;5.00;1.00
18281;DHT22;9266;51.132;17.062;2023-12-22T02:11:38;4.90;1.00
18281;DHT22;9266;51.132;17.062;2023-12-22T02:14:05;4.80;1.00
18281;DHT22;9266;51.132;17.062;2023-12-22T02:16:39;4.90;1.00
18281;DHT22;9266;51.132;17.062;2023-12-22T02:19:21;5.00;1.00
18281;DHT22;9266;51.132;17.062;2023-12-22T02:22:03;5.00;1.00
18281;DHT22;9266;51.132;17.062;2023-12-22T02:24:32;5.10;1.00
18281;DHT22;9266;51.132;17.062;2023-12-22T02:27:03;5.10;1.00
18281;DHT22;9266;51.132;17.062;2023-12-22T02:29:33;5.00;1.00
18281;DHT22;9266;51.132;17.062;2023-12-22T02:32:04;4.70;99.90
18281;DHT22;9266;51.132;17.062;2023-12-22T02:34:35;4.60;1.00
18281;DHT22;9266;51.132;17.062;2023-12-22T02:37:05;4.50;1.00
18281;DHT22;9266;51.132;17.062;2023-12-22T02:39:35;4.40;1.00
18281;DHT22;9266;51.132;17.062;2023-12-22T02:42:02;4.30;99.90
18281;DHT22;9266;51.132;17.062;2023-12-22T02:44:30;4.20;99.90
18281;DHT22;9266;51.132;17.062;2023-12-22T02:46:57;4.10;99.90
18281;DHT22;9266;51.132;17.062;2023-12-22T02:49:24;4.00;1.00
18281;DHT22;9266;51.132;17.062;2023-12-22T02:51:51;3.90;1.00
18281;DHT22;9266;51.132;17.062;2023-12-22T02:54:18;3.80;18.60
18281;DHT22;9266;51.132;17.062;2023-12-22T02:56:47;3.80;1.00
18281;DHT22;9266;51.132;17.062;2023-12-22T02:59:14;3.70;1.00
18281;DHT22;9266;51.132;17.062;2023-12-22T03:01:41;3.60;16.90
18281;DHT22;9266;51.132;17.062;2023-12-22T03:04:08;3.60;8.80
18281;DHT22;9266;51.132;17.062;2023-12-22T03:06:34;3.60;1.00
18281;DHT22;9266;51.132;17.062;2023-12-22T03:09:01;3.60;1.00
18281;DHT22;9266;51.132;17.062;2023-12-22T03:11:29;3.60;1.00
18281;DHT22;9266;51.132;17.062;2023-12-22T03:13:57;3.50;99.90
18281;DHT22;9266;51.132;17.062;2023-12-22T03:16:24;3.60;60.90
18281;DHT22;9266;51.132;17.062;2023-12-22T03:18:51;3.70;1.00
18281;DHT22;9266;51.132;17.062;2023-12-22T03:21:18;3.80;1.00
18281;DHT22;9266;51.132;17.062;2023-12-22T03:23:45;3.90;1.00
18281;DHT22;9266;51.132;17.062;2023-12-22T03:26:12;4.10;1.00
18281;DHT22;9266;51.132;17.062;2023-12-22T03:28:39;4.00;1.00
18281;DHT22;9266;51.132;17.062;2023-12-22T03:31:08;4.00;1.00
18281;DHT22;9266;51.132;17.062;2023-12-22T03:33:34;3.90;1.00
18281;DHT22;9266;51.132;17.062;2023-12-22T03:36:02;3.90;1.00
18281;DHT22;9266;51.132;17.062;2023-12-22T03:38:28;3.80;1.00
18281;DHT22;9266;51.132;17.062;2023-12-22T03:40:55;3.70;99.90
18281;DHT22;9266;51.132;17.062;2023-12-22T03:43:22;3.60;99.90
18281;DHT22;9266;51.132;17.062;2023-12-22T03:45:49;3.60;1.00
18281;DHT22;9266;51.132;17.062;2023-12-22T03:48:17;3.50;1.00
18281;DHT22;9266;51.132;17.062;2023-12-22T03:50:43;3.50;1.00
18281;DHT22;9266;51.132;17.062;2023-12-22T03:53:10;3.60;8.50
18281;DHT22;9266;51.132;17.062;2023-12-22T03:55:37;3.50;2.30
18281;DHT22;9266;51.132;17.062;2023-12-22T03:58:04;3.60;1.00
18281;DHT22;9266;51.132;17.062;2023-12-22T04:00:32;3.60;1.00
18281;DHT22;9266;51.132;17.062;2023-12-22T04:03:00;3.60;1.00
18281;DHT22;9266;51.132;17.062;2023-12-22T04:05:28;3.60;1.00
18281;DHT22;9266;51.132;17.062;2023-12-22T04:07:55;3.70;1.00
18281;DHT22;9266;51.132;17.062;2023-12-22T04:10:22;3.80;1.00
18281;DHT22;9266;51.132;17.062;2023-12-22T04:12:49;3.80;99.90
18281;DHT22;9266;51.132;17.062;2023-12-22T04:15:16;3.90;99.90
18281;DHT22;9266;51.132;17.062;2023-12-22T04:17:43;3.90;99.90
18281;DHT22;9266;51.132;17.062;2023-12-22T04:20:10;3.90;99.90
18281;DHT22;9266;51.132;17.062;2023-12-22T04:22:39;3.90;99.90
18281;DHT22;9266;51.132;17.062;2023-12-22T04:25:06;3.90;99.90
18281;DHT22;9266;51.132;17.062;2023-12-22T04:27:34;3.90;99.90
18281;DHT22;9266;51.132;17.062;2023-12-22T04:30:01;3.90;99.90
18281;DHT22;9266;51.132;17.062;2023-12-22T04:32:28;3.90;99.90
18281;DHT22;9266;51.132;17.062;2023-12-22T04:34:55;3.90;99.90
18281;DHT22;9266;51.132;17.062;2023-12-22T04:37:21;3.90;99.90
18281;DHT22;9266;51.132;17.062;2023-12-22T04:39:51;3.90;99.90
18281;DHT22;9266;51.132;17.062;2023-12-22T04:42:19;3.90;91.20
18281;DHT22;9266;51.132;17.062;2023-12-22T04:44:46;3.90;1.00
18281;DHT22;9266;51.132;17.062;2023-12-22T04:47:13;3.90;1.00
18281;DHT22;9266;51.132;17.062;2023-12-22T04:49:39;3.90;1.00
18281;DHT22;9266;51.132;17.062;2023-12-22T04:52:06;3.90;1.00
18281;DHT22;9266;51.132;17.062;2023-12-22T04:54:33;4.00;1.00
18281;DHT22;9266;51.132;17.062;2023-12-22T04:57:02;4.00;1.00
18281;DHT22;9266;51.132;17.062;2023-12-22T04:59:29;4.00;1.00
18281;DHT22;9266;51.132;17.062;2023-12-22T05:01:56;4.00;1.00
18281;DHT22;9266;51.132;17.062;2023-12-22T05:04:23;4.00;1.00
18281;DHT22;9266;51.132;17.062;2023-12-22T05:06:49;4.00;1.00
18281;DHT22;9266;51.132;17.062;2023-12-22T05:09:16;4.00;1.00
18281;DHT22;9266;51.132;17.062;2023-12-22T05:11:43;4.10;1.00
18281;DHT22;9266;51.132;17.062;2023-12-22T05:14:12;4.10;1.00
18281;DHT22;9266;51.132;17.062;2023-12-22T05:16:38;4.10;1.00
18281;DHT22;9266;51.132;17.062;2023-12-22T05:19:05;4.20;1.00
18281;DHT22;9266;51.132;17.062;2023-12-22T05:21:32;4.20;1.00
18281;DHT22;9266;51.132;17.062;2023-12-22T05:23:59;4.20;1.00
18281;DHT22;9266;51.132;17.062;2023-12-22T05:26:26;4.10;1.00
18281;DHT22;9266;51.132;17.062;2023-12-22T05:28:55;4.10;1.00
18281;DHT22;9266;51.132;17.062;2023-12-22T05:31:24;4.10;1.00
18281;DHT22;9266;51.132;17.062;2023-12-22T05:33:51;4.10;1.00
18281;DHT22;9266;51.132;17.062;2023-12-22T05:36:18;4.10;1.00
18281;DHT22;9266;51.132;17.062;2023-12-22T05:38:45;4.00;1.00
18281;DHT22;9266;51.132;17.062;2023-12-22T05:41:13;4.00;1.00
18281;DHT22;9266;51.132;17.062;2023-12-22T05:43:40;4.00;1.00
18281;DHT22;9266;51.132;17.062;2023-12-22T05:46:08;4.00;1.00
18281;DHT22;9266;51.132;17.062;2023-12-22T05:48:37;4.10;1.00
18281;DHT22;9266;51.132;17.062;2023-12-22T05:51:04;4.00;1.00
18281;DHT22;9266;51.132;17.062;2023-12-22T05:53:33;4.00;1.00
18281;DHT22;9266;51.132;17.062;2023-12-22T05:56:00;4.00;1.00
18281;DHT22;9266;51.132;17.062;2023-12-22T05:58:27;4.00;1.00
18281;DHT22;9266;51.132;17.062;2023-12-22T06:00:53;4.00;1.00
18281;DHT22;9266;51.132;17.062;2023-12-22T06:03:20;4.10;1.00
18281;DHT22;9266;51.132;17.062;2023-12-22T06:05:49;4.00;1.00
18281;DHT22;9266;51.132;17.062;2023-12-22T06:08:16;4.00;1.00
18281;DHT22;9266;51.132;17.062;2023-12-22T06:10:43;3.90;1.00
18281;DHT22;9266;51.132;17.062;2023-12-22T06:13:10;3.90;1.00
18281;DHT22;9266;51.132;17.062;2023-12-22T06:15:37;5.40;1.00
18281;DHT22;9266;51.132;17.062;2023-12-22T06:18:04;3.90;1.00
18281;DHT22;9266;51.132;17.062;2023-12-22T06:20:31;3.90;1.00
18281;DHT22;9266;51.132;17.062;2023-12-22T06:22:59;3.90;1.00
18281;DHT22;9266;51.132;17.062;2023-12-22T06:25:26;4.00;1.00
18281;DHT22;9266;51.132;17.062;2023-12-22T06:27:53;3.90;1.00
18281;DHT22;9266;51.132;17.062;2023-12-22T06:30:20;3.90;1.00
18281;DHT22;9266;51.132;17.062;2023-12-22T06:32:47;3.80;3.80
18281;DHT22;9266;51.132;17.062;2023-12-22T06:35:14;3.80;99.90
18281;DHT22;9266;51.132;17.062;2023-12-22T06:37:42;3.70;99.90
18281;DHT22;9266;51.132;17.062;2023-12-22T06:40:11;3.70;99.90
18281;DHT22;9266;51.132;17.062;2023-12-22T06:42:38;3.70;99.90
18281;DHT22;9266;51.132;17.062;2023-12-22T06:45:06;3.70;1.00
18281;DHT22;9266;51.132;17.062;2023-12-22T06:47:33;3.70;1.00
18281;DHT22;9266;51.132;17.062;2023-12-22T06:50:00;3.80;1.00
18281;DHT22;9266;51.132;17.062;2023-12-22T06:52:27;3.70;1.00
18281;DHT22;9266;51.132;17.062;2023-12-22T06:54:53;3.70;1.00
18281;DHT22;9266;51.132;17.062;2023-12-22T06:57:22;3.70;1.00
18281;DHT22;9266;51.132;17.062;2023-12-22T06:59:49;3.70;18.50
18281;DHT22;9266;51.132;17.062;2023-12-22T07:02:16;3.70;80.60
18281;DHT22;9266;51.132;17.062;2023-12-22T07:07:47;3.80;68.50
18281;DHT22;9266;51.132;17.062;2023-12-22T07:10:14;3.90;81.60
18281;DHT22;9266;51.132;17.062;2023-12-22T07:12:42;3.90;79.60
18281;DHT22;9266;51.132;17.062;2023-12-22T07:15:09;3.80;85.10
18281;DHT22;9266;51.132;17.062;2023-12-22T07:17:37;3.80;1.00
18281;DHT22;9266;51.132;17.062;2023-12-22T07:20:04;3.80;82.80
18281;DHT22;9266;51.132;17.062;2023-12-22T07:22:32;3.80;85.20
18281;DHT22;9266;51.132;17.062;2023-12-22T07:24:58;3.80;99.90
18281;DHT22;9266;51.132;17.062;2023-12-22T07:27:25;4.00;26.70
18281;DHT22;9266;51.132;17.062;2023-12-22T07:29:55;4.10;1.00
18281;DHT22;9266;51.132;17.062;2023-12-22T07:32:22;4.20;1.00
18281;DHT22;9266;51.132;17.062;2023-12-22T07:34:48;4.30;1.00
18281;DHT22;9266;51.132;17.062;2023-12-22T07:37:15;4.30;1.00
18281;DHT22;9266;51.132;17.062;2023-12-22T07:39:42;4.30;1.00
18281;DHT22;9266;51.132;17.062;2023-12-22T07:42:10;4.30;57.20
18281;DHT22;9266;51.132;17.062;2023-12-22T07:44:37;4.20;99.90
18281;DHT22;9266;51.132;17.062;2023-12-22T07:47:06;4.10;99.90
18281;DHT22;9266;51.132;17.062;2023-12-22T07:49:35;4.10;1.00
18281;DHT22;9266;51.132;17.062;2023-12-22T07:52:02;4.00;1.00
18281;DHT22;9266;51.132;17.062;2023-12-22T07:54:28;4.00;79.90
18281;DHT22;9266;51.132;17.062;2023-12-22T07:56:55;4.10;99.90
18281;DHT22;9266;51.132;17.062;2023-12-22T07:59:22;4.10;99.90
18281;DHT22;9266;51.132;17.062;2023-12-22T08:01:50;4.10;99.90
18281;DHT22;9266;51.132;17.062;2023-12-22T08:04:19;4.20;99.90
18281;DHT22;9266;51.132;17.062;2023-12-22T08:06:46;5.50;1.00
18281;DHT22;9266;51.132;17.062;2023-12-22T08:09:13;4.20;99.90
18281;DHT22;9266;51.132;17.062;2023-12-22T08:11:40;4.30;99.90
18281;DHT22;9266;51.132;17.062;2023-12-22T08:14:07;4.30;99.90
18281;DHT22;9266;51.132;17.062;2023-12-22T08:16:34;4.30;2.90
18281;DHT22;9266;51.132;17.062;2023-12-22T08:19:00;4.30;1.00
18281;DHT22;9266;51.132;17.062;2023-12-22T08:21:29;4.50;1.00
18281;DHT22;9266;51.132;17.062;2023-12-22T08:23:56;4.40;1.00
18281;DHT22;9266;51.132;17.062;2023-12-22T08:26:22;4.40;1.00
18281;DHT22;9266;51.132;17.062;2023-12-22T08:28:49;4.30;1.00
18281;DHT22;9266;51.132;17.062;2023-12-22T08:31:16;4.30;1.00
18281;DHT22;9266;51.132;17.062;2023-12-22T08:33:43;4.30;1.00
18281;DHT22;9266;51.132;17.062;2023-12-22T08:36:10;4.30;1.00
18281;DHT22;9266;51.132;17.062;2023-12-22T08:38:39;4.40;99.90
18281;DHT22;9266;51.132;17.062;2023-12-22T08:41:06;4.50;99.90
18281;DHT22;9266;51.132;17.062;2023-12-22T08:43:34;4.60;99.90
18281;DHT22;9266;51.132;17.062;2023-12-22T08:46:01;4.60;99.90
18281;DHT22;9266;51.132;17.062;2023-12-22T08:48:28;4.60;99.90
18281;DHT22;9266;51.132;17.062;2023-12-22T08:50:54;4.50;98.40
18281;DHT22;9266;51.132;17.062;2023-12-22T08:53:21;4.50;99.90
18281;DHT22;9266;51.132;17.062;2023-12-22T08:55:50;4.50;49.70
18281;DHT22;9266;51.132;17.062;2023-12-22T08:58:17;4.50;64.60
18281;DHT22;9266;51.132;17.062;2023-12-22T09:00:44;4.50;78.70
18281;DHT22;9266;51.132;17.062;2023-12-22T09:03:11;4.40;1.00
18281;DHT22;9266;51.132;17.062;2023-12-22T09:05:38;4.40;1.00
18281;DHT22;9266;51.132;17.062;2023-12-22T09:08:06;4.40;1.00
18281;DHT22;9266;51.132;17.062;2023-12-22T09:10:32;4.50;1.00
18281;DHT22;9266;51.132;17.062;2023-12-22T09:13:01;4.50;1.00
18281;DHT22;9266;51.132;17.062;2023-12-22T09:15:28;4.40;1.40
18281;DHT22;9266;51.132;17.062;2023-12-22T09:17:55;4.20;99.90
18281;DHT22;9266;51.132;17.062;2023-12-22T09:20:22;4.00;99.90
18281;DHT22;9266;51.132;17.062;2023-12-22T09:22:49;4.00;99.90
18281;DHT22;9266;51.132;17.062;2023-12-22T09:25:16;4.10;99.90
18281;DHT22;9266;51.132;17.062;2023-12-22T09:27:43;4.20;99.90
18281;DHT22;9266;51.132;17.062;2023-12-22T09:30:12;4.20;99.90
18281;DHT22;9266;51.132;17.062;2023-12-22T09:32:39;4.30;99.90
18281;DHT22;9266;51.132;17.062;2023-12-22T09:35:06;4.40;99.90
18281;DHT22;9266;51.132;17.062;2023-12-22T09:37:33;4.50;99.90
18281;DHT22;9266;51.132;17.062;2023-12-22T09:40:00;4.50;99.90
18281;DHT22;9266;51.132;17.062;2023-12-22T09:42:27;4.50;66.50
18281;DHT22;9266;51.132;17.062;2023-12-22T09:44:55;4.70;62.40
18281;DHT22;9266;51.132;17.062;2023-12-22T09:47:26;4.60;99.90
18281;DHT22;9266;51.132;17.062;2023-12-22T09:49:55;4.80;99.90
18281;DHT22;9266;51.132;17.062;2023-12-22T09:52:23;4.60;99.90
18281;DHT22;9266;51.132;17.062;2023-12-22T09:54:52;4.60;99.90
18281;DHT22;9266;51.132;17.062;2023-12-22T09:57:22;4.70;99.90
18281;DHT22;9266;51.132;17.062;2023-12-22T09:59:51;4.80;99.90
18281;DHT22;9266;51.132;17.062;2023-12-22T10:02:18;4.80;99.90
18281;DHT22;9266;51.132;17.062;2023-12-22T10:04:47;4.80;99.90
18281;DHT22;9266;51.132;17.062;2023-12-22T10:07:14;4.90;99.90
18281;DHT22;9266;51.132;17.062;2023-12-22T10:09:44;4.90;99.90
18281;DHT22;9266;51.132;17.062;2023-12-22T10:12:13;4.90;99.90
18281;DHT22;9266;51.132;17.062;2023-12-22T10:14:41;4.90;99.90
18281;DHT22;9266;51.132;17.062;2023-12-22T10:17:09;5.00;99.90
18281;DHT22;9266;51.132;17.062;2023-12-22T10:19:36;5.30;10.10
18281;DHT22;9266;51.132;17.062;2023-12-22T10:22:05;5.40;1.00
18281;DHT22;9266;51.132;17.062;2023-12-22T10:24:38;5.50;1.00
18281;DHT22;9266;51.132;17.062;2023-12-22T10:27:07;5.50;1.00
18281;DHT22;9266;51.132;17.062;2023-12-22T10:29:35;5.50;1.00
18281;DHT22;9266;51.132;17.062;2023-12-22T10:32:03;5.50;1.00
18281;DHT22;9266;51.132;17.062;2023-12-22T10:34:30;5.30;1.00
18281;DHT22;9266;51.132;17.062;2023-12-22T10:36:59;5.30;1.00
18281;DHT22;9266;51.132;17.062;2023-12-22T10:39:28;5.30;1.00
18281;DHT22;9266;51.132;17.062;2023-12-22T10:41:56;5.40;1.00
18281;DHT22;9266;51.132;17.062;2023-12-22T10:44:24;5.50;1.00
18281;DHT22;9266;51.132;17.062;2023-12-22T10:46:52;5.50;1.00
18281;DHT22;9266;51.132;17.062;2023-12-22T10:49:19;5.50;1.00
18281;DHT22;9266;51.132;17.062;2023-12-22T10:51:46;5.40;1.00
18281;DHT22;9266;51.132;17.062;2023-12-22T10:54:13;5.40;1.00
18281;DHT22;9266;51.132;17.062;2023-12-22T10:56:41;5.50;1.00
18281;DHT22;9266;51.132;17.062;2023-12-22T10:59:09;5.50;1.00
18281;DHT22;9266;51.132;17.062;2023-12-22T11:01:36;5.60;1.00
18281;DHT22;9266;51.132;17.062;2023-12-22T11:04:06;5.40;1.00
18281;DHT22;9266;51.132;17.062;2023-12-22T11:06:35;5.30;1.00
18281;DHT22;9266;51.132;17.062;2023-12-22T11:09:06;5.10;1.00
18281;DHT22;9266;51.132;17.062;2023-12-22T11:11:34;5.20;1.00
18281;DHT22;9266;51.132;17.062;2023-12-22T11:14:03;5.20;1.00
18281;DHT22;9266;51.132;17.062;2023-12-22T11:16:32;5.20;1.00
18281;DHT22;9266;51.132;17.062;2023-12-22T11:19:00;5.20;1.00
18281;DHT22;9266;51.132;17.062;2023-12-22T11:21:28;5.30;1.00
18281;DHT22;9266;51.132;17.062;2023-12-22T11:23:56;5.10;1.00
18281;DHT22;9266;51.132;17.062;2023-12-22T11:26:24;5.10;1.00
18281;DHT22;9266;51.132;17.062;2023-12-22T11:28:52;5.20;1.00
18281;DHT22;9266;51.132;17.062;2023-12-22T11:31:20;5.20;1.00
18281;DHT22;9266;51.132;17.062;2023-12-22T11:33:49;5.20;1.00
18281;DHT22;9266;51.132;17.062;2023-12-22T11:36:17;5.30;1.00
18281;DHT22;9266;51.132;17.062;2023-12-22T11:38:45;5.40;1.00
18281;DHT22;9266;51.132;17.062;2023-12-22T11:41:16;5.50;1.00
18281;DHT22;9266;51.132;17.062;2023-12-22T11:43:44;5.40;1.00
18281;DHT22;9266;51.132;17.062;2023-12-22T11:46:12;5.50;1.00
18281;DHT22;9266;51.132;17.062;2023-12-22T11:48:46;5.50;1.00
18281;DHT22;9266;51.132;17.062;2023-12-22T11:51:14;5.50;1.00
18281;DHT22;9266;51.132;17.062;2023-12-22T11:53:41;5.40;1.00
18281;DHT22;9266;51.132;17.062;2023-12-22T11:56:09;5.50;1.00
18281;DHT22;9266;51.132;17.062;2023-12-22T11:58:37;5.40;1.00
18281;DHT22;9266;51.132;17.062;2023-12-22T12:01:09;5.40;1.00
18281;DHT22;9266;51.132;17.062;2023-12-22T12:03:37;5.50;1.00
18281;DHT22;9266;51.132;17.062;2023-12-22T12:06:14;5.60;99.90
18281;DHT22;9266;51.132;17.062;2023-12-22T12:08:42;5.60;99.90
18281;DHT22;9266;51.132;17.062;2023-12-22T12:11:09;5.70;99.90
18281;DHT22;9266;51.132;17.062;2023-12-22T12:13:43;5.70;99.90
18281;DHT22;9266;51.132;17.062;2023-12-22T12:16:11;5.70;99.90
18281;DHT22;9266;51.132;17.062;2023-12-22T12:18:39;5.80;99.90
18281;DHT22;9266;51.132;17.062;2023-12-22T12:21:07;5.90;99.90
18281;DHT22;9266;51.132;17.062;2023-12-22T12:23:36;5.80;99.90
18281;DHT22;9266;51.132;17.062;2023-12-22T12:26:06;5.70;99.90
18281;DHT22;9266;51.132;17.062;2023-12-22T12:28:34;5.60;99.90
18281;DHT22;9266;51.132;17.062;2023-12-22T12:31:04;5.60;99.90
18281;DHT22;9266;51.132;17.062;2023-12-22T12:33:31;5.60;99.90
18281;DHT22;9266;51.132;17.062;2023-12-22T12:35:59;7.00;99.90
18281;DHT22;9266;51.132;17.062;2023-12-22T12:38:40;5.50;99.90
18281;DHT22;9266;51.132;17.062;2023-12-22T12:41:09;5.50;99.90
18281;DHT22;9266;51.132;17.062;2023-12-22T12:43:41;5.50;99.90
18281;DHT22;9266;51.132;17.062;2023-12-22T12:46:08;5.50;99.90
18281;DHT22;9266;51.132;17.062;2023-12-22T12:48:36;5.40;99.90
18281;DHT22;9266;51.132;17.062;2023-12-22T12:51:04;5.50;99.90
18281;DHT22;9266;51.132;17.062;2023-12-22T12:53:31;5.50;99.90
18281;DHT22;9266;51.132;17.062;2023-12-22T12:56:01;5.60;99.90
18281;DHT22;9266;51.132;17.062;2023-12-22T12:58:28;5.60;99.90
18281;DHT22;9266;51.132;17.062;2023-12-22T13:01:07;5.70;99.90
18281;DHT22;9266;51.132;17.062;2023-12-22T13:03:51;5.60;99.90
18281;DHT22;9266;51.132;17.062;2023-12-22T13:06:18;5.60;99.90
18281;DHT22;9266;51.132;17.062;2023-12-22T13:08:48;5.60;99.90
18281;DHT22;9266;51.132;17.062;2023-12-22T13:11:19;5.60;99.90
18281;DHT22;9266;51.132;17.062;2023-12-22T13:13:46;5.60;99.90
18281;DHT22;9266;51.132;17.062;2023-12-22T13:16:16;5.60;99.90
18281;DHT22;9266;51.132;17.062;2023-12-22T13:18:44;5.50;99.90
18281;DHT22;9266;51.132;17.062;2023-12-22T13:21:11;5.60;99.90
18281;DHT22;9266;51.132;17.062;2023-12-22T13:23:38;5.50;99.90
18281;DHT22;9266;51.132;17.062;2023-12-22T13:26:05;5.60;99.90
18281;DHT22;9266;51.132;17.062;2023-12-22T13:28:33;5.60;99.90
18281;DHT22;9266;51.132;17.062;2023-12-22T13:31:00;5.50;99.90
18281;DHT22;9266;51.132;17.062;2023-12-22T13:33:27;5.40;99.90
18281;DHT22;9266;51.132;17.062;2023-12-22T13:36:00;5.50;99.90
18281;DHT22;9266;51.132;17.062;2023-12-22T13:38:28;5.50;99.90
18281;DHT22;9266;51.132;17.062;2023-12-22T13:40:55;5.50;99.90
18281;DHT22;9266;51.132;17.062;2023-12-22T13:43:22;5.50;99.90
18281;DHT22;9266;51.132;17.062;2023-12-22T13:45:51;5.40;99.90
18281;DHT22;9266;51.132;17.062;2023-12-22T13:48:19;5.30;99.90
18281;DHT22;9266;51.132;17.062;2023-12-22T13:50:56;5.30;99.90
18281;DHT22;9266;51.132;17.062;2023-12-22T13:53:22;5.20;99.90
18281;DHT22;9266;51.132;17.062;2023-12-22T13:55:54;5.20;99.90
18281;DHT22;9266;51.132;17.062;2023-12-22T13:58:21;6.50;99.90
18281;DHT22;9266;51.132;17.062;2023-12-22T14:00:48;5.20;99.90
18281;DHT22;9266;51.132;17.062;2023-12-22T14:03:17;5.10;99.90
18281;DHT22;9266;51.132;17.062;2023-12-22T14:05:47;5.00;99.90
18281;DHT22;9266;51.132;17.062;2023-12-22T14:08:14;5.10;99.90
18281;DHT22;9266;51.132;17.062;2023-12-22T14:10:45;5.00;99.90
18281;DHT22;9266;51.132;17.062;2023-12-22T14:13:12;5.00;99.90
18281;DHT22;9266;51.132;17.062;2023-12-22T14:15:41;5.10;99.90
18281;DHT22;9266;51.132;17.062;2023-12-22T14:18:08;5.10;99.90
18281;DHT22;9266;51.132;17.062;2023-12-22T14:20:36;5.10;99.90
18281;DHT22;9266;51.132;17.062;2023-12-22T14:23:03;5.00;99.90
18281;DHT22;9266;51.132;17.062;2023-12-22T14:25:30;5.10;99.90
18281;DHT22;9266;51.132;17.062;2023-12-22T14:27:58;5.00;99.90
18281;DHT22;9266;51.132;17.062;2023-12-22T14:30:25;5.00;99.90
18281;DHT22;9266;51.132;17.062;2023-12-22T14:32:52;5.00;99.90
18281;DHT22;9266;51.132;17.062;2023-12-22T14:35:19;5.00;99.90
18281;DHT22;9266;51.132;17.062;2023-12-22T14:37:48;5.00;99.90
18281;DHT22;9266;51.132;17.062;2023-12-22T14:40:15;5.00;99.90
18281;DHT22;9266;51.132;17.062;2023-12-22T14:42:41;4.90;99.90
18281;DHT22;9266;51.132;17.062;2023-12-22T14:45:09;4.80;99.90
18281;DHT22;9266;51.132;17.062;2023-12-22T14:47:36;4.90;99.90
18281;DHT22;9266;51.132;17.062;2023-12-22T14:50:03;4.90;99.90
18281;DHT22;9266;51.132;17.062;2023-12-22T14:52:30;4.80;99.90
18281;DHT22;9266;51.132;17.062;2023-12-22T14:55:00;3.50;99.90
18281;DHT22;9266;51.132;17.062;2023-12-22T14:57:28;4.70;99.90
18281;DHT22;9266;51.132;17.062;2023-12-22T14:59:55;4.70;99.90
18281;DHT22;9266;51.132;17.062;2023-12-22T15:02:22;4.70;99.90
18281;DHT22;9266;51.132;17.062;2023-12-22T15:04:49;4.70;99.90
18281;DHT22;9266;51.132;17.062;2023-12-22T15:07:16;4.60;99.90
18281;DHT22;9266;51.132;17.062;2023-12-22T15:09:43;4.60;99.90
18281;DHT22;9266;51.132;17.062;2023-12-22T15:12:13;4.60;99.90
18281;DHT22;9266;51.132;17.062;2023-12-22T15:14:43;4.60;99.90
18281;DHT22;9266;51.132;17.062;2023-12-22T15:17:10;4.50;99.90
18281;DHT22;9266;51.132;17.062;2023-12-22T15:19:40;4.50;99.90
18281;DHT22;9266;51.132;17.062;2023-12-22T15:22:07;4.50;99.90
18281;DHT22;9266;51.132;17.062;2023-12-22T15:24:36;4.50;99.90
18281;DHT22;9266;51.132;17.062;2023-12-22T15:27:05;4.50;99.90
18281;DHT22;9266;51.132;17.062;2023-12-22T15:29:34;4.60;99.90
18281;DHT22;9266;51.132;17.062;2023-12-22T15:32:01;4.50;99.90
18281;DHT22;9266;51.132;17.062;2023-12-22T15:34:28;4.40;99.90
18281;DHT22;9266;51.132;17.062;2023-12-22T15:36:55;4.40;99.90
18281;DHT22;9266;51.132;17.062;2023-12-22T15:39:22;4.30;99.90
18281;DHT22;9266;51.132;17.062;2023-12-22T15:41:50;4.20;99.90
18281;DHT22;9266;51.132;17.062;2023-12-22T15:44:17;4.20;99.90
18281;DHT22;9266;51.132;17.062;2023-12-22T15:46:45;4.10;99.90
18281;DHT22;9266;51.132;17.062;2023-12-22T15:49:12;4.00;99.90
18281;DHT22;9266;51.132;17.062;2023-12-22T15:51:39;4.10;99.90
18281;DHT22;9266;51.132;17.062;2023-12-22T15:54:07;4.10;99.90
18281;DHT22;9266;51.132;17.062;2023-12-22T15:56:34;4.10;99.90
18281;DHT22;9266;51.132;17.062;2023-12-22T15:59:01;4.10;99.90